createdAt,value
2019-05-16T00:00:09.003Z,11.27
2019-05-16T00:01:09.492Z,11.26
2019-05-16T00:02:09.006Z,11.27
2019-05-16T00:03:08.992Z,11.26
2019-05-16T00:04:08.966Z,11.27
2019-05-16T00:05:08.952Z,11.23
2019-05-16T00:06:08.943Z,11.24
2019-05-16T00:07:08.940Z,11.23
2019-05-16T00:08:12.506Z,11.23
2019-05-16T00:09:08.910Z,11.21
2019-05-16T00:10:08.900Z,11.23
2019-05-16T00:11:08.882Z,11.23
2019-05-16T00:12:08.904Z,11.19
2019-05-16T00:13:08.866Z,11.19
2019-05-16T00:14:08.858Z,11.17
2019-05-16T00:15:09.321Z,11.13
2019-05-16T00:16:08.837Z,11.13
2019-05-16T00:17:12.805Z,11.12
2019-05-16T00:18:08.844Z,11.12
2019-05-16T00:19:09.226Z,11.11
2019-05-16T00:20:09.551Z,11.09
2019-05-16T00:21:08.905Z,11.06
2019-05-16T00:22:08.857Z,11.03
2019-05-16T00:23:13.354Z,11.02
2019-05-16T00:24:29.772Z,11.03
2019-05-16T00:25:09.134Z,11.02
2019-05-16T00:26:08.724Z,11.05
2019-05-16T00:27:08.718Z,11.02
2019-05-16T00:28:09.042Z,11.02
2019-05-16T00:29:08.698Z,11.01
2019-05-16T00:30:09.160Z,10.99
2019-05-16T00:31:08.834Z,10.99
2019-05-16T00:32:08.734Z,10.99
2019-05-16T00:33:08.660Z,10.99
2019-05-16T00:34:09.604Z,10.98
2019-05-16T00:35:09.256Z,10.95
2019-05-16T00:36:09.215Z,10.94
2019-05-16T00:37:08.803Z,10.94
2019-05-16T00:38:08.929Z,10.94
2019-05-16T00:39:08.597Z,10.94
2019-05-16T00:40:08.610Z,10.95
2019-05-16T00:41:08.661Z,10.95
2019-05-16T00:42:08.879Z,10.93
2019-05-16T00:43:08.546Z,10.93
2019-05-16T00:44:08.678Z,10.94
2019-05-16T00:45:09.160Z,10.91
2019-05-16T00:46:08.518Z,10.93
2019-05-16T00:47:08.897Z,10.93
2019-05-16T00:48:08.961Z,10.91
2019-05-16T00:49:08.553Z,10.91
2019-05-16T00:50:08.897Z,10.90
2019-05-16T00:51:08.464Z,10.88
2019-05-16T00:52:08.450Z,10.90
2019-05-16T00:53:09.159Z,10.91
2019-05-16T00:54:08.434Z,10.90
2019-05-16T00:55:08.614Z,10.88
2019-05-16T00:56:08.420Z,10.84
2019-05-16T00:57:08.643Z,10.86
2019-05-16T00:58:08.907Z,10.83
2019-05-16T00:59:08.383Z,10.81
2019-05-16T01:00:08.381Z,10.81
2019-05-16T01:01:08.729Z,10.78
2019-05-16T01:02:08.983Z,10.78
2019-05-16T01:03:08.354Z,10.76
2019-05-16T01:04:08.328Z,10.75
2019-05-16T01:05:10.377Z,10.75
2019-05-16T01:06:16.622Z,10.70
2019-05-16T01:07:09.286Z,10.70
2019-05-16T01:08:08.319Z,10.73
2019-05-16T01:09:08.737Z,10.72
2019-05-16T01:10:08.953Z,10.72
2019-05-16T01:11:08.245Z,10.72
2019-05-16T01:12:08.521Z,10.72
2019-05-16T01:13:08.234Z,10.72
2019-05-16T01:14:08.548Z,10.72
2019-05-16T01:15:08.228Z,10.73
2019-05-16T01:16:08.780Z,10.75
2019-05-16T01:17:08.608Z,10.75
2019-05-16T01:18:08.243Z,10.73
2019-05-16T01:19:08.613Z,10.72
2019-05-16T01:20:08.741Z,10.72
2019-05-16T01:21:08.158Z,10.70
2019-05-16T01:22:08.433Z,10.70
2019-05-16T01:23:08.939Z,10.70
2019-05-16T01:24:08.126Z,10.70
2019-05-16T01:25:09.441Z,10.69
2019-05-16T01:26:08.089Z,10.65
2019-05-16T01:27:08.362Z,10.68
2019-05-16T01:28:08.822Z,10.68
2019-05-16T01:29:09.101Z,10.68
2019-05-16T01:30:09.026Z,10.66
2019-05-16T01:31:08.584Z,10.65
2019-05-16T01:32:08.490Z,10.60
2019-05-16T01:33:08.849Z,10.58
2019-05-16T01:34:07.996Z,10.57
2019-05-16T01:35:08.405Z,10.55
2019-05-16T01:36:08.957Z,10.58
2019-05-16T01:37:08.386Z,10.60
2019-05-16T01:38:08.668Z,10.58
2019-05-16T01:39:08.125Z,10.55
2019-05-16T01:40:08.236Z,10.55
2019-05-16T01:41:08.757Z,10.54
2019-05-16T01:42:08.111Z,10.54
2019-05-16T01:43:08.621Z,10.54
2019-05-16T01:44:07.994Z,10.55
2019-05-16T01:45:08.251Z,10.55
2019-05-16T01:46:08.446Z,10.54
2019-05-16T01:47:08.997Z,10.54
2019-05-16T01:48:08.383Z,10.52
2019-05-16T01:49:08.305Z,10.52
2019-05-16T01:50:08.704Z,10.52
2019-05-16T01:51:07.938Z,10.49
2019-05-16T01:52:08.528Z,10.51
2019-05-16T01:53:08.611Z,10.47
2019-05-16T01:54:08.725Z,10.47
2019-05-16T01:55:08.418Z,10.46
2019-05-16T01:56:08.561Z,10.44
2019-05-16T01:57:08.186Z,10.43
2019-05-16T01:58:10.049Z,10.39
2019-05-16T01:59:08.835Z,10.36
2019-05-16T02:00:08.419Z,10.36
2019-05-16T02:01:15.714Z,10.35
2019-05-16T02:02:08.356Z,10.36
2019-05-16T02:03:08.297Z,10.35
2019-05-16T02:04:11.906Z,10.38
2019-05-16T02:05:08.246Z,10.36
2019-05-16T02:06:08.867Z,10.36
2019-05-16T02:07:08.557Z,10.36
2019-05-16T02:08:08.890Z,10.35
2019-05-16T02:09:08.111Z,10.34
2019-05-16T02:10:08.571Z,10.32
2019-05-16T02:11:08.575Z,10.31
2019-05-16T02:12:10.572Z,10.34
2019-05-16T02:13:08.475Z,10.34
2019-05-16T02:14:09.466Z,10.34
2019-05-16T02:15:08.012Z,10.34
2019-05-16T02:16:08.273Z,10.32
2019-05-16T02:17:10.878Z,10.32
2019-05-16T02:18:08.292Z,10.34
2019-05-16T02:19:08.225Z,10.31
2019-05-16T02:20:08.758Z,10.29
2019-05-16T02:21:07.865Z,10.29
2019-05-16T02:22:08.955Z,10.29
2019-05-16T02:23:08.044Z,10.29
2019-05-16T02:24:08.838Z,10.29
2019-05-16T02:25:07.789Z,10.26
2019-05-16T02:26:08.010Z,10.28
2019-05-16T02:27:09.600Z,10.28
2019-05-16T02:28:07.419Z,10.28
2019-05-16T02:29:13.350Z,10.25
2019-05-16T02:30:12.034Z,10.25
2019-05-16T02:31:07.416Z,10.26
2019-05-16T02:32:07.389Z,10.25
2019-05-16T02:33:07.378Z,10.26
2019-05-16T02:34:07.368Z,10.25
2019-05-16T02:35:07.346Z,10.25
2019-05-16T02:36:10.699Z,10.24
2019-05-16T02:37:20.122Z,10.24
2019-05-16T02:38:11.161Z,10.22
2019-05-16T02:39:10.920Z,10.18
2019-05-16T02:40:07.295Z,10.17
2019-05-16T02:41:10.518Z,10.14
2019-05-16T02:42:07.283Z,10.13
2019-05-16T02:43:07.258Z,10.16
2019-05-16T02:44:07.259Z,10.14
2019-05-16T02:45:10.672Z,10.16
2019-05-16T02:46:07.217Z,10.13
2019-05-16T02:47:10.606Z,10.13
2019-05-16T02:49:16.122Z,10.18
2019-05-16T02:50:16.099Z,10.20
2019-05-16T02:51:16.095Z,10.22
2019-05-16T02:52:16.095Z,10.25
2019-05-16T02:53:16.082Z,10.28
2019-05-16T02:54:16.066Z,10.28
2019-05-16T02:55:16.044Z,10.26
2019-05-16T02:56:16.036Z,10.28
2019-05-16T02:57:16.039Z,10.26
2019-05-16T02:58:16.014Z,10.28
2019-05-16T02:59:16.012Z,10.28
2019-05-16T03:00:15.992Z,10.25
2019-05-16T03:01:15.995Z,10.22
2019-05-16T03:02:15.977Z,10.25
2019-05-16T03:03:15.980Z,10.26
2019-05-16T03:04:15.948Z,10.25
2019-05-16T03:05:15.941Z,10.26
2019-05-16T03:06:15.941Z,10.25
2019-05-16T03:07:32.811Z,10.24
2019-05-16T03:08:16.910Z,10.24
2019-05-16T03:09:15.898Z,10.22
2019-05-16T03:10:15.894Z,10.14
2019-05-16T03:11:15.889Z,10.13
2019-05-16T03:12:15.868Z,10.10
2019-05-16T03:13:15.869Z,10.10
2019-05-16T03:14:15.838Z,10.06
2019-05-16T03:15:15.836Z,9.99
2019-05-16T03:16:15.818Z,9.96
2019-05-16T03:17:15.824Z,9.95
2019-05-16T03:18:15.798Z,9.92
2019-05-16T03:19:15.799Z,9.89
2019-05-16T03:20:15.782Z,9.86
2019-05-16T03:21:15.764Z,9.83
2019-05-16T03:22:15.773Z,9.81
2019-05-16T03:23:15.766Z,9.80
2019-05-16T03:24:15.746Z,9.85
2019-05-16T03:25:15.735Z,9.88
2019-05-16T03:26:15.712Z,9.89
2019-05-16T03:27:15.723Z,9.89
2019-05-16T03:28:15.706Z,9.93
2019-05-16T03:29:15.679Z,9.91
2019-05-16T03:30:17.058Z,9.93
2019-05-16T03:31:16.034Z,9.99
2019-05-16T03:32:15.650Z,10.02
2019-05-16T03:33:24.276Z,10.04
2019-05-16T03:34:17.277Z,10.02
2019-05-16T03:35:16.929Z,10.06
2019-05-16T03:36:16.249Z,10.07
2019-05-16T03:37:15.587Z,10.11
2019-05-16T03:38:15.597Z,10.14
2019-05-16T03:39:15.576Z,10.14
2019-05-16T03:40:15.567Z,10.16
2019-05-16T03:41:15.569Z,10.14
2019-05-16T03:42:15.551Z,10.16
2019-05-16T03:43:15.560Z,10.17
2019-05-16T03:44:15.516Z,10.16
2019-05-16T03:45:15.523Z,10.18
2019-05-16T03:46:15.523Z,10.22
2019-05-16T03:47:15.522Z,10.24
2019-05-16T03:48:15.473Z,10.26
2019-05-16T03:49:15.462Z,10.28
2019-05-16T03:50:15.451Z,10.28
2019-05-16T03:51:15.467Z,10.26
2019-05-16T03:52:15.434Z,10.28
2019-05-16T03:53:15.419Z,10.26
2019-05-16T03:54:15.443Z,10.25
2019-05-16T03:55:15.405Z,10.22
2019-05-16T03:56:15.409Z,10.20
2019-05-16T03:57:15.378Z,10.17
2019-05-16T03:58:15.367Z,10.14
2019-05-16T03:59:15.370Z,10.10
2019-05-16T04:00:15.359Z,10.11
2019-05-16T04:01:15.337Z,10.11
2019-05-16T04:02:15.337Z,10.11
2019-05-16T04:03:15.305Z,10.09
2019-05-16T04:04:15.322Z,10.07
2019-05-16T04:05:15.290Z,10.04
2019-05-16T04:06:15.275Z,10.02
2019-05-16T04:07:15.277Z,10.07
2019-05-16T04:08:20.790Z,10.11
2019-05-16T04:09:16.268Z,10.16
2019-05-16T04:10:15.253Z,10.20
2019-05-16T04:11:18.441Z,10.26
2019-05-16T04:12:16.221Z,10.29
2019-05-16T04:13:15.263Z,10.34
2019-05-16T04:14:15.247Z,10.38
2019-05-16T04:15:15.218Z,10.43
2019-05-16T04:16:15.194Z,10.42
2019-05-16T04:17:15.174Z,10.44
2019-05-16T04:18:15.149Z,10.46
2019-05-16T04:19:15.190Z,10.47
2019-05-16T04:20:15.136Z,10.47
2019-05-16T04:21:17.527Z,10.49
2019-05-16T04:22:15.127Z,10.46
2019-05-16T04:23:15.117Z,10.47
2019-05-16T04:24:15.114Z,10.47
2019-05-16T04:25:15.079Z,10.49
2019-05-16T04:26:15.068Z,10.49
2019-05-16T04:27:15.080Z,10.46
2019-05-16T04:28:15.055Z,10.47
2019-05-16T04:29:15.067Z,10.49
2019-05-16T04:30:15.023Z,10.47
2019-05-16T04:31:15.021Z,10.47
2019-05-16T04:32:15.000Z,10.47
2019-05-16T04:33:14.997Z,10.46
2019-05-16T04:34:15.004Z,10.46
2019-05-16T04:35:14.979Z,10.46
2019-05-16T04:36:14.972Z,10.47
2019-05-16T04:37:14.965Z,10.44
2019-05-16T04:38:30.181Z,10.46
2019-05-16T04:39:15.921Z,10.49
2019-05-16T04:40:14.925Z,10.51
2019-05-16T04:41:14.928Z,10.47
2019-05-16T04:42:14.938Z,10.55
2019-05-16T04:43:14.900Z,10.66
2019-05-16T04:44:14.882Z,10.81
2019-05-16T04:45:14.868Z,10.83
2019-05-16T04:46:14.874Z,10.84
2019-05-16T04:47:14.843Z,10.75
2019-05-16T04:48:14.828Z,10.70
2019-05-16T04:49:14.837Z,10.68
2019-05-16T04:50:14.817Z,10.68
2019-05-16T04:51:14.806Z,10.68
2019-05-16T04:52:14.813Z,10.68
2019-05-16T04:53:14.781Z,10.70
2019-05-16T04:54:14.764Z,10.73
2019-05-16T04:55:14.764Z,10.76
2019-05-16T04:56:14.757Z,10.73
2019-05-16T04:57:14.745Z,10.73
2019-05-16T04:58:14.727Z,10.72
2019-05-16T04:59:16.675Z,10.69
2019-05-16T05:00:14.713Z,10.66
2019-05-16T05:01:14.717Z,10.63
2019-05-16T05:02:14.710Z,10.58
2019-05-16T05:03:14.671Z,10.55
2019-05-16T05:04:15.575Z,10.52
2019-05-16T05:05:14.665Z,10.44
2019-05-16T05:06:14.661Z,10.39
2019-05-16T05:07:14.645Z,10.43
2019-05-16T05:08:14.609Z,10.43
2019-05-16T05:09:14.622Z,10.43
2019-05-16T05:10:14.604Z,10.38
2019-05-16T05:11:14.598Z,10.39
2019-05-16T05:12:14.599Z,10.42
2019-05-16T05:13:14.577Z,10.42
2019-05-16T05:14:14.555Z,10.38
2019-05-16T05:15:14.540Z,10.35
2019-05-16T05:16:14.546Z,10.35
2019-05-16T05:17:14.524Z,10.35
2019-05-16T05:18:14.516Z,10.36
2019-05-16T05:19:16.475Z,10.38
2019-05-16T05:20:14.492Z,10.34
2019-05-16T05:21:14.477Z,10.31
2019-05-16T05:22:14.474Z,10.34
2019-05-16T05:23:14.463Z,10.39
2019-05-16T05:24:14.442Z,10.43
2019-05-16T05:25:14.441Z,10.51
2019-05-16T05:26:14.425Z,10.52
2019-05-16T05:27:14.412Z,10.55
2019-05-16T05:28:14.413Z,10.55
2019-05-16T05:29:14.392Z,10.68
2019-05-16T05:30:14.380Z,10.75
2019-05-16T05:31:14.383Z,10.76
2019-05-16T05:32:14.668Z,10.72
2019-05-16T05:33:14.359Z,10.80
2019-05-16T05:34:14.359Z,10.90
2019-05-16T05:35:14.328Z,10.93
2019-05-16T05:36:14.319Z,11.33
2019-05-16T05:37:14.328Z,11.33
2019-05-16T05:38:15.170Z,11.39
2019-05-16T05:39:15.629Z,11.31
2019-05-16T05:40:14.276Z,11.16
2019-05-16T05:41:14.275Z,11.16
2019-05-16T05:42:14.262Z,11.02
2019-05-16T05:43:14.246Z,11.49
2019-05-16T05:44:14.268Z,12.40
2019-05-16T05:45:14.215Z,12.80
2019-05-16T05:46:14.253Z,12.77
2019-05-16T05:47:14.209Z,12.43
2019-05-16T05:48:14.193Z,12.04
2019-05-16T05:49:14.182Z,11.49
2019-05-16T05:50:14.181Z,11.28
2019-05-16T05:51:14.163Z,11.33
2019-05-16T05:52:14.156Z,11.45
2019-05-16T05:53:14.129Z,11.48
2019-05-16T05:54:14.122Z,11.60
2019-05-16T05:55:14.120Z,11.70
2019-05-16T05:56:14.099Z,11.72
2019-05-16T05:57:14.109Z,11.53
2019-05-16T05:58:14.087Z,11.33
2019-05-16T05:59:14.088Z,11.23
2019-05-16T06:00:14.071Z,11.05
2019-05-16T06:01:14.059Z,10.91
2019-05-16T06:02:14.047Z,10.95
2019-05-16T06:03:14.045Z,10.98
2019-05-16T06:04:14.038Z,11.02
2019-05-16T06:05:14.006Z,11.09
2019-05-16T06:06:13.995Z,11.12
2019-05-16T06:07:14.005Z,11.16
2019-05-16T06:08:13.975Z,11.26
2019-05-16T06:09:25.323Z,11.35
2019-05-16T06:10:14.954Z,11.44
2019-05-16T06:11:13.943Z,11.44
2019-05-16T06:12:13.935Z,11.49
2019-05-16T06:13:13.936Z,11.64
2019-05-16T06:14:13.914Z,11.74
2019-05-16T06:15:13.901Z,11.75
2019-05-16T06:16:13.890Z,11.77
2019-05-16T06:17:13.882Z,12.00
2019-05-16T06:18:13.880Z,11.97
2019-05-16T06:19:13.862Z,12.04
2019-05-16T06:20:14.829Z,12.11
2019-05-16T06:21:13.842Z,11.98
2019-05-16T06:22:13.831Z,12.05
2019-05-16T06:23:13.824Z,11.78
2019-05-16T06:24:16.189Z,11.72
2019-05-16T06:25:14.053Z,11.82
2019-05-16T06:26:13.787Z,11.60
2019-05-16T06:27:13.767Z,11.45
2019-05-16T06:28:13.784Z,11.45
2019-05-16T06:29:13.748Z,11.44
2019-05-16T06:30:13.748Z,11.49
2019-05-16T06:31:14.541Z,11.49
2019-05-16T06:32:13.720Z,11.57
2019-05-16T06:33:13.706Z,11.72
2019-05-16T06:34:15.358Z,11.70
2019-05-16T06:35:13.694Z,11.79
2019-05-16T06:36:13.694Z,11.72
2019-05-16T06:37:13.664Z,11.62
2019-05-16T06:38:13.744Z,11.59
2019-05-16T06:39:13.642Z,11.72
2019-05-16T06:40:13.642Z,11.93
2019-05-16T06:41:13.632Z,12.11
2019-05-16T06:42:13.602Z,11.93
2019-05-16T06:43:13.611Z,11.75
2019-05-16T06:44:13.582Z,11.69
2019-05-16T06:45:13.572Z,11.69
2019-05-16T06:46:13.580Z,11.75
2019-05-16T06:47:19.776Z,11.67
2019-05-16T06:48:14.540Z,11.82
2019-05-16T06:49:13.541Z,11.78
2019-05-16T06:50:13.569Z,11.96
2019-05-16T06:51:13.510Z,12.13
2019-05-16T06:52:13.507Z,12.16
2019-05-16T06:53:13.497Z,12.11
2019-05-16T06:54:13.489Z,11.98
2019-05-16T06:55:13.480Z,11.93
2019-05-16T06:56:13.457Z,11.98
2019-05-16T06:57:13.446Z,11.96
2019-05-16T06:58:13.437Z,11.97
2019-05-16T06:59:13.433Z,12.05
2019-05-16T07:00:13.426Z,12.04
2019-05-16T07:01:13.424Z,12.08
2019-05-16T07:02:26.488Z,12.12
2019-05-16T07:03:14.385Z,12.30
2019-05-16T07:04:13.374Z,12.33
2019-05-16T07:05:13.369Z,12.38
2019-05-16T07:06:29.594Z,12.46
2019-05-16T07:07:14.356Z,12.44
2019-05-16T07:08:13.327Z,12.63
2019-05-16T07:09:13.331Z,12.76
2019-05-16T07:10:13.315Z,12.87
2019-05-16T07:11:13.318Z,13.01
2019-05-16T07:12:13.320Z,13.17
2019-05-16T07:13:13.292Z,13.38
2019-05-16T07:14:13.285Z,13.46
2019-05-16T07:15:13.280Z,13.62
2019-05-16T07:16:13.249Z,13.62
2019-05-16T07:17:13.240Z,13.43
2019-05-16T07:18:13.301Z,13.16
2019-05-16T07:19:13.230Z,13.04
2019-05-16T07:20:13.198Z,13.44
2019-05-16T07:21:13.186Z,14.01
2019-05-16T07:22:13.196Z,13.98
2019-05-16T07:23:13.168Z,14.36
2019-05-16T07:24:13.157Z,14.61
2019-05-16T07:25:13.145Z,14.72
2019-05-16T07:26:13.144Z,14.79
2019-05-16T07:27:13.153Z,16.04
2019-05-16T07:28:13.114Z,18.54
2019-05-16T07:29:13.111Z,21.08
2019-05-16T07:30:13.094Z,20.05
2019-05-16T07:31:18.324Z,17.73
2019-05-16T07:32:14.075Z,16.04
2019-05-16T07:33:13.076Z,14.91
2019-05-16T07:34:14.681Z,14.59
2019-05-16T07:35:13.043Z,14.56
2019-05-16T07:36:15.828Z,14.95
2019-05-16T07:37:13.043Z,15.35
2019-05-16T07:38:13.022Z,15.31
2019-05-16T07:39:13.003Z,15.00
2019-05-16T07:40:22.603Z,14.69
2019-05-16T07:41:14.255Z,15.28
2019-05-16T07:42:12.974Z,15.43
2019-05-16T07:43:12.971Z,16.18
2019-05-16T07:44:12.953Z,15.71
2019-05-16T07:45:12.934Z,15.52
2019-05-16T07:46:12.930Z,16.17
2019-05-16T07:47:12.922Z,16.85
2019-05-16T07:48:12.912Z,18.32
2019-05-16T07:49:13.408Z,18.21
2019-05-16T07:50:12.878Z,19.89
2019-05-16T07:51:12.869Z,20.93
2019-05-16T07:52:12.857Z,21.11
2019-05-16T07:53:12.861Z,20.69
2019-05-16T07:54:12.830Z,20.61
2019-05-16T07:55:13.019Z,21.59
2019-05-16T07:56:12.826Z,22.17
2019-05-16T07:57:19.601Z,20.51
2019-05-16T07:58:13.797Z,17.98
2019-05-16T07:59:12.816Z,16.29
2019-05-16T08:00:12.776Z,14.90
2019-05-16T08:01:13.123Z,14.19
2019-05-16T08:02:12.758Z,14.69
2019-05-16T08:03:13.063Z,14.78
2019-05-16T08:04:12.771Z,14.57
2019-05-16T08:05:12.737Z,14.87
2019-05-16T08:06:12.704Z,14.67
2019-05-16T08:07:12.712Z,15.67
2019-05-16T08:08:12.694Z,17.95
2019-05-16T08:09:13.035Z,17.68
2019-05-16T08:10:12.673Z,17.28
2019-05-16T08:11:12.664Z,16.91
2019-05-16T08:12:12.643Z,16.81
2019-05-16T08:13:13.244Z,17.28
2019-05-16T08:14:12.632Z,16.69
2019-05-16T08:15:12.613Z,15.84
2019-05-16T08:16:12.602Z,16.57
2019-05-16T08:17:13.490Z,17.22
2019-05-16T08:18:12.942Z,17.91
2019-05-16T08:19:12.582Z,17.95
2019-05-16T08:20:12.579Z,17.42
2019-05-16T08:21:16.550Z,17.68
2019-05-16T08:22:12.560Z,16.30
2019-05-16T08:23:12.530Z,15.25
2019-05-16T08:24:14.937Z,15.05
2019-05-16T08:25:12.503Z,15.11
2019-05-16T08:26:12.530Z,15.13
2019-05-16T08:27:12.557Z,15.31
2019-05-16T08:28:13.150Z,15.43
2019-05-16T08:29:13.483Z,15.04
2019-05-16T08:30:12.630Z,14.87
2019-05-16T08:31:12.460Z,14.60
2019-05-16T08:32:12.440Z,14.49
2019-05-16T08:33:13.475Z,13.86
2019-05-16T08:34:15.599Z,13.63
2019-05-16T08:35:12.805Z,13.68
2019-05-16T08:36:13.155Z,13.80
2019-05-16T08:38:13.736Z,13.90
2019-05-16T08:39:12.679Z,13.94
2019-05-16T08:40:12.451Z,13.75
2019-05-16T08:41:17.115Z,13.35
2019-05-16T08:42:13.336Z,13.19
2019-05-16T08:43:12.621Z,13.10
2019-05-16T08:44:12.748Z,13.17
2019-05-16T08:45:13.135Z,13.41
2019-05-16T08:46:13.288Z,13.19
2019-05-16T08:47:12.354Z,13.21
2019-05-16T08:48:13.134Z,13.48
2019-05-16T08:49:12.731Z,13.81
2019-05-16T08:50:10.992Z,13.75
2019-05-16T08:50:14.399Z,14.05
2019-05-16T08:51:12.790Z,14.56
2019-05-16T08:52:12.385Z,14.85
2019-05-16T08:53:13.785Z,14.85
2019-05-16T08:54:14.958Z,14.35
2019-05-16T08:55:13.298Z,14.48
2019-05-16T08:56:13.228Z,15.20
2019-05-16T08:57:25.752Z,15.23
2019-05-16T08:58:13.773Z,16.44
2019-05-16T09:01:14.683Z,16.59
2019-05-16T09:02:12.730Z,17.02
2019-05-16T09:03:12.566Z,16.01
2019-05-16T09:04:12.656Z,17.24
2019-05-16T09:05:13.771Z,18.01
2019-05-16T09:06:12.191Z,19.42
2019-05-16T09:07:12.699Z,19.83
2019-05-16T09:08:12.476Z,19.64
2019-05-16T09:09:29.795Z,18.89
2019-05-16T09:10:31.975Z,16.44
2019-05-16T09:10:35.466Z,16.36
2019-05-16T09:10:45.683Z,19.40
2019-05-16T09:11:29.907Z,20.69
2019-05-16T09:12:13.025Z,19.43
2019-05-16T09:13:12.062Z,17.17
2019-05-16T09:14:12.365Z,15.43
2019-05-16T09:15:11.977Z,15.20
2019-05-16T09:16:11.964Z,14.75
2019-05-16T09:17:11.945Z,14.26
2019-05-16T09:18:11.945Z,14.38
2019-05-16T09:19:11.924Z,14.57
2019-05-16T09:20:11.924Z,14.11
2019-05-16T09:21:11.929Z,14.02
2019-05-16T09:22:11.884Z,14.09
2019-05-16T09:23:12.440Z,14.34
2019-05-16T09:24:11.871Z,14.61
2019-05-16T09:25:11.863Z,14.54
2019-05-16T09:26:15.816Z,14.29
2019-05-16T09:27:13.417Z,14.31
2019-05-16T09:28:11.899Z,14.35
2019-05-16T09:29:11.829Z,14.44
2019-05-16T09:30:11.811Z,14.63
2019-05-16T09:31:11.800Z,14.67
2019-05-16T09:32:16.920Z,14.64
2019-05-16T09:33:12.819Z,14.80
2019-05-16T09:34:11.766Z,14.71
2019-05-16T09:35:11.768Z,14.53
2019-05-16T09:36:11.743Z,14.39
2019-05-16T09:37:11.788Z,14.53
2019-05-16T09:38:11.709Z,14.82
2019-05-16T09:39:12.538Z,15.09
2019-05-16T09:40:11.690Z,15.31
2019-05-16T09:41:11.697Z,15.13
2019-05-16T09:42:11.725Z,15.40
2019-05-16T09:43:11.727Z,15.60
2019-05-16T09:44:11.696Z,15.89
2019-05-16T09:45:11.659Z,16.03
2019-05-16T09:46:11.682Z,16.32
2019-05-16T09:47:11.717Z,16.65
2019-05-16T09:48:11.707Z,16.60
2019-05-16T09:49:19.293Z,16.48
2019-05-16T09:50:12.583Z,16.60
2019-05-16T09:51:11.584Z,16.30
2019-05-16T09:52:11.566Z,15.64
2019-05-16T09:53:11.553Z,15.03
2019-05-16T09:54:11.562Z,14.66
2019-05-16T09:55:11.539Z,14.86
2019-05-16T09:56:11.531Z,14.93
2019-05-16T09:57:11.515Z,15.12
2019-05-16T09:58:11.520Z,15.22
2019-05-16T09:59:11.492Z,15.40
2019-05-16T10:00:11.492Z,15.58
2019-05-16T10:01:11.468Z,15.67
2019-05-16T10:02:11.465Z,15.96
2019-05-16T10:03:11.468Z,16.23
2019-05-16T10:04:11.437Z,16.32
2019-05-16T10:05:13.568Z,16.41
2019-05-16T10:06:11.410Z,16.11
2019-05-16T10:08:21.614Z,16.01
2019-05-16T10:09:20.322Z,16.27
2019-05-16T10:10:20.302Z,16.36
2019-05-16T10:11:20.331Z,16.57
2019-05-16T10:12:20.316Z,16.30
2019-05-16T10:13:20.293Z,16.23
2019-05-16T10:14:20.262Z,15.95
2019-05-16T10:15:20.250Z,15.64
2019-05-16T10:16:20.241Z,15.23
2019-05-16T10:17:20.230Z,15.07
2019-05-16T10:18:20.231Z,14.98
2019-05-16T10:19:20.259Z,14.95
2019-05-16T10:20:20.235Z,15.11
2019-05-16T10:21:20.773Z,15.52
2019-05-16T10:22:20.182Z,15.70
2019-05-16T10:23:20.159Z,15.56
2019-05-16T10:24:20.161Z,15.33
2019-05-16T10:25:20.148Z,15.53
2019-05-16T10:26:20.133Z,15.43
2019-05-16T10:27:20.128Z,15.74
2019-05-16T10:28:20.303Z,15.92
2019-05-16T10:29:20.096Z,16.23
2019-05-16T10:30:20.106Z,16.44
2019-05-16T10:31:20.075Z,16.81
2019-05-16T10:32:20.066Z,17.14
2019-05-16T10:33:20.054Z,17.25
2019-05-16T10:34:20.035Z,17.45
2019-05-16T10:35:20.044Z,17.70
2019-05-16T10:36:21.599Z,17.42
2019-05-16T10:37:20.035Z,16.96
2019-05-16T10:38:20.013Z,15.73
2019-05-16T10:39:20.012Z,15.25
2019-05-16T10:40:19.992Z,15.01
2019-05-16T10:41:20.010Z,15.25
2019-05-16T10:42:27.439Z,15.64
2019-05-16T10:43:20.961Z,15.99
2019-05-16T10:44:19.962Z,16.22
2019-05-16T10:45:19.921Z,16.32
2019-05-16T10:46:19.921Z,16.06
2019-05-16T10:47:19.934Z,15.85
2019-05-16T10:48:19.893Z,15.70
2019-05-16T10:49:33.351Z,16.07
2019-05-16T10:50:20.869Z,16.16
2019-05-16T10:51:19.886Z,16.22
2019-05-16T10:52:19.857Z,16.22
2019-05-16T10:53:51.514Z,15.96
2019-05-16T10:54:20.924Z,15.68
2019-05-16T10:55:19.916Z,15.68
2019-05-16T10:56:19.820Z,15.96
2019-05-16T10:57:19.889Z,16.04
2019-05-16T10:58:35.561Z,16.07
2019-05-16T11:00:41.465Z,16.22
2019-05-16T11:01:27.337Z,15.78
2019-05-16T11:02:20.796Z,15.74
2019-05-16T11:03:19.756Z,15.78
2019-05-16T11:04:29.300Z,16.17
2019-05-16T11:05:30.048Z,16.27
2019-05-16T11:06:25.599Z,16.22
2019-05-16T11:07:20.694Z,16.17
2019-05-16T11:08:19.683Z,16.40
2019-05-16T11:09:19.666Z,16.51
2019-05-16T11:10:19.656Z,16.57
2019-05-16T11:11:20.127Z,16.36
2019-05-16T11:12:20.459Z,16.29
2019-05-16T11:13:20.372Z,16.40
2019-05-16T11:14:19.628Z,16.51
2019-05-16T11:15:19.612Z,16.48
2019-05-16T11:16:19.604Z,16.07
2019-05-16T11:17:19.600Z,16.07
2019-05-16T11:18:19.578Z,16.18
2019-05-16T11:19:24.227Z,16.07
2019-05-16T11:20:20.654Z,15.67
2019-05-16T11:21:19.584Z,15.49
2019-05-16T11:22:19.553Z,15.58
2019-05-16T11:23:23.257Z,15.86
2019-05-16T11:24:19.546Z,16.11
2019-05-16T11:25:28.343Z,16.10
2019-05-16T11:26:20.504Z,16.36
2019-05-16T11:27:19.497Z,16.67
2019-05-16T11:28:19.505Z,16.88
2019-05-16T11:29:19.456Z,16.70
2019-05-16T11:30:19.494Z,16.62
2019-05-16T11:31:19.450Z,16.70
2019-05-16T11:32:19.447Z,16.45
2019-05-16T11:33:19.436Z,16.59
2019-05-16T11:34:19.405Z,16.45
2019-05-16T11:35:19.396Z,16.37
2019-05-16T11:36:19.376Z,16.36
2019-05-16T11:37:19.387Z,16.50
2019-05-16T11:38:19.365Z,16.62
2019-05-16T11:39:19.344Z,16.78
2019-05-16T11:40:19.603Z,16.84
2019-05-16T11:41:20.685Z,16.88
2019-05-16T11:42:19.324Z,16.90
2019-05-16T11:43:21.873Z,16.82
2019-05-16T11:44:19.300Z,16.36
2019-05-16T11:45:19.312Z,16.01
2019-05-16T11:46:19.277Z,15.89
2019-05-16T11:47:19.281Z,16.04
2019-05-16T11:48:19.251Z,16.22
2019-05-16T11:49:19.257Z,16.32
2019-05-16T11:50:19.241Z,16.48
2019-05-16T11:51:19.269Z,16.14
2019-05-16T11:52:19.224Z,16.01
2019-05-16T11:53:19.222Z,16.33
2019-05-16T11:54:19.191Z,16.52
2019-05-16T11:55:19.182Z,16.51
2019-05-16T11:56:19.182Z,16.32
2019-05-16T11:57:19.172Z,15.93
2019-05-16T11:58:19.201Z,15.86
2019-05-16T11:59:19.148Z,15.71
2019-05-16T12:00:19.117Z,15.60
2019-05-16T12:01:19.131Z,15.73
2019-05-16T12:02:19.879Z,15.71
2019-05-16T12:03:19.097Z,15.49
2019-05-16T12:04:19.095Z,15.60
2019-05-16T12:05:19.065Z,15.67
2019-05-16T12:06:19.065Z,15.76
2019-05-16T12:07:19.455Z,15.70
2019-05-16T12:08:19.034Z,15.73
2019-05-16T12:09:19.069Z,15.68
2019-05-16T12:10:19.014Z,15.74
2019-05-16T12:11:19.027Z,15.93
2019-05-16T12:12:20.980Z,15.81
2019-05-16T12:13:27.648Z,15.84
2019-05-16T12:14:19.987Z,15.68
2019-05-16T12:15:20.045Z,15.58
2019-05-16T12:16:19.053Z,15.56
2019-05-16T12:17:18.941Z,15.66
2019-05-16T12:18:18.940Z,15.77
2019-05-16T12:19:18.933Z,15.85
2019-05-16T12:20:18.910Z,16.01
2019-05-16T12:21:19.000Z,16.18
2019-05-16T12:22:18.946Z,16.32
2019-05-16T12:23:18.878Z,16.37
2019-05-16T12:24:31.863Z,16.36
2019-05-16T12:25:19.868Z,16.34
2019-05-16T12:26:18.849Z,16.33
2019-05-16T12:27:18.955Z,16.41
2019-05-16T12:28:18.836Z,16.52
2019-05-16T12:29:18.811Z,16.55
2019-05-16T12:30:18.803Z,16.63
2019-05-16T12:31:18.832Z,16.73
2019-05-16T12:32:18.798Z,16.75
2019-05-16T12:33:19.096Z,16.66
2019-05-16T12:34:18.757Z,16.66
2019-05-16T12:35:18.746Z,16.70
2019-05-16T12:36:18.747Z,16.50
2019-05-16T12:37:18.740Z,16.54
2019-05-16T12:38:18.716Z,16.32
2019-05-16T12:39:18.721Z,16.17
2019-05-16T12:40:18.696Z,16.27
2019-05-16T12:41:18.717Z,16.42
2019-05-16T12:42:18.671Z,16.48
2019-05-16T12:43:18.692Z,16.52
2019-05-16T12:44:18.651Z,16.60
2019-05-16T12:45:18.637Z,16.67
2019-05-16T12:46:18.638Z,16.75
2019-05-16T12:47:18.619Z,16.78
2019-05-16T12:48:20.390Z,16.85
2019-05-16T12:49:18.601Z,16.98
2019-05-16T12:50:18.598Z,17.00
2019-05-16T12:51:18.572Z,17.06
2019-05-16T12:52:18.626Z,17.03
2019-05-16T12:53:19.024Z,16.91
2019-05-16T12:54:18.596Z,16.84
2019-05-16T12:55:18.554Z,16.66
2019-05-16T12:56:18.520Z,16.59